Time;durP1;ratioP1;P1;durP2;ratioP2;P2;SDS_P1;SDS_P2;PMS_P1;PMS_P2;Temp;Humidity;BMP_temperature;BMP_pressure;BME280_temperature;BME280_humidity;BME280_pressure;Samples;Min_cycle;Max_cycle;Signal;HPM_P1;HPM_P2
2022/06/16 00:00:19;;;;;;;4.12;2.70;;;;;;;12.88;67.71;100693.43;1662561;85;21023;-77
2022/06/16 00:02:51;;;;;;;6.28;2.80;;;;;;;12.84;67.77;100696.27;1662469;85;21063;-78
2022/06/16 00:05:23;;;;;;;5.08;2.80;;;;;;;12.78;67.82;100691.28;1662522;85;21039;-77
2022/06/16 00:07:51;;;;;;;4.00;2.58;;;;;;;12.75;67.86;100687.42;1662605;85;20979;-77
2022/06/16 00:10:19;;;;;;;5.62;3.05;;;;;;;12.69;67.99;100685.47;1662458;85;21067;-77
2022/06/16 00:12:47;;;;;;;4.33;2.95;;;;;;;12.69;68.09;100684.16;1662790;85;21162;-77
2022/06/16 00:15:19;;;;;;;3.27;2.67;;;;;;;12.64;67.97;100678.23;1662600;85;21101;-77
2022/06/16 00:17:46;;;;;;;3.62;2.70;;;;;;;12.60;68.08;100679.72;1662628;85;21039;-77
2022/06/16 00:20:14;;;;;;;3.85;2.62;;;;;;;12.56;68.13;100680.78;1662469;85;21536;-77
2022/06/16 00:22:42;;;;;;;3.87;2.83;;;;;;;12.49;68.19;100680.16;1662672;85;21043;-77
2022/06/16 00:25:10;;;;;;;4.35;2.70;;;;;;;12.46;68.30;100671.08;1662543;85;21059;-77
2022/06/16 00:27:38;;;;;;;5.00;3.00;;;;;;;12.43;68.47;100670.74;1662860;85;21525;-77
2022/06/16 00:30:07;;;;;;;4.45;3.10;;;;;;;12.40;68.51;100670.87;1662535;85;21058;-77
2022/06/16 00:32:38;;;;;;;3.67;2.92;;;;;;;12.39;68.64;100669.63;1655827;85;21070;-77
2022/06/16 00:35:07;;;;;;;5.22;2.72;;;;;;;12.34;68.64;100667.64;1648088;85;21107;-77
2022/06/16 00:37:34;;;;;;;4.25;2.55;;;;;;;12.31;68.83;100659.89;1662657;85;21001;-77
2022/06/16 00:40:02;;;;;;;6.47;3.15;;;;;;;12.28;68.96;100661.71;1662423;85;21152;-77
2022/06/16 00:42:29;;;;;;;4.37;3.13;;;;;;;12.27;68.96;100663.07;1662543;85;21059;-77
2022/06/16 00:44:57;;;;;;;6.03;3.07;;;;;;;12.27;69.26;100665.23;1662545;85;21051;-77
2022/06/16 00:47:29;;;;;;;6.17;3.37;;;;;;;12.26;69.45;100660.91;1662417;85;21024;-77
2022/06/16 00:50:01;;;;;;;4.90;2.93;;;;;;;12.26;69.32;100657.43;1662619;85;21098;-77
2022/06/16 00:52:32;;;;;;;4.80;3.02;;;;;;;12.24;69.50;100658.79;1662473;84;21203;-77
2022/06/16 00:55:14;;;;;;;5.87;3.08;;;;;;;12.21;69.66;100650.19;1662609;85;21063;-77
2022/06/16 00:57:45;;;;;;;3.42;2.70;;;;;;;12.20;69.85;100651.96;1662517;85;21043;-77
2022/06/16 01:03:07;;;;;;;5.28;3.33;;;;;;;12.18;70.12;100642.42;1662520;85;21059;-77
2022/06/16 01:05:34;;;;;;;5.70;3.47;;;;;;;12.19;70.21;100643.69;1662646;85;21174;-77
2022/06/16 01:08:07;;;;;;;4.25;3.05;;;;;;;12.17;70.25;100641.58;1662484;85;21087;-78
2022/06/16 01:10:42;;;;;;;3.87;2.67;;;;;;;12.18;70.39;100638.48;1662676;85;21493;-77
2022/06/16 01:13:42;;;;;;;4.03;2.83;;;;;;;12.17;70.50;100636.31;1662527;85;21055;-77
2022/06/16 01:16:23;;;;;;;5.72;3.15;;;;;;;12.18;70.70;100635.39;1662957;85;21148;-77
2022/06/16 01:19:17;;;;;;;6.58;2.77;;;;;;;12.16;70.65;100639.84;1662434;85;21585;-78
2022/06/16 01:22:20;;;;;;;10.53;3.07;;;;;;;12.15;70.79;100639.92;1662805;85;21286;-77
2022/06/16 01:25:10;;;;;;;6.10;2.95;;;;;;;12.16;70.83;100645.56;1620641;85;21016;-78
2022/06/16 01:27:55;;;;;;;2.95;2.52;;;;;;;12.14;71.04;100643.45;1663078;85;26523;-77
2022/06/16 01:30:33;;;;;;;4.57;2.73;;;;;;;12.12;71.04;100641.36;1589924;85;21074;-78
2022/06/16 01:33:09;;;;;;;4.25;2.75;;;;;;;12.11;71.10;100644.88;1637460;85;21278;-77
2022/06/16 01:35:56;;;;;;;3.15;2.42;;;;;;;12.12;71.29;100643.98;1682031;83;21130;-78
2022/06/16 01:38:35;;;;;;;3.12;2.42;;;;;;;12.17;71.46;100636.31;1663228;84;21012;-77
2022/06/16 01:41:26;;;;;;;4.50;2.40;;;;;;;12.21;71.51;100640.98;1718758;82;21081;-77
2022/06/16 01:44:12;;;;;;;4.53;2.55;;;;;;;12.31;71.98;100644.11;1718121;82;21037;-77
2022/06/16 01:46:42;;;;;;;3.93;2.30;;;;;;;12.35;71.77;100639.97;1717949;82;21915;-77
2022/06/16 01:49:22;;;;;;;5.28;2.70;;;;;;;12.36;71.68;100638.19;1708015;82;20919;-77
2022/06/16 01:51:57;;;;;;;5.50;3.20;;;;;;;12.38;71.85;100633.27;1718876;82;20989;-78
2022/06/16 01:54:35;;;;;;;5.13;2.47;;;;;;;12.38;71.77;100638.52;1718734;82;21030;-77
2022/06/16 01:57:11;;;;;;;4.28;2.75;;;;;;;12.38;71.81;100634.58;1718109;82;21539;-77
2022/06/16 02:00:03;;;;;;;3.92;2.65;;;;;;;12.41;72.01;100634.45;1718678;82;21114;-77
2022/06/16 02:02:36;;;;;;;4.33;2.40;;;;;;;12.40;71.92;100627.96;1718732;82;21061;-78
2022/06/16 02:05:11;;;;;;;3.65;2.35;;;;;;;12.41;72.08;100625.72;1718880;82;21041;-78
2022/06/16 02:07:43;;;;;;;3.87;2.53;;;;;;;12.38;71.85;100625.84;1717892;82;21117;-77
2022/06/16 02:10:31;;;;;;;3.37;2.40;;;;;;;12.36;72.05;100628.98;1719117;82;21018;-77
2022/06/16 02:13:04;;;;;;;5.65;3.00;;;;;;;12.35;72.18;100632.55;1718990;82;21110;-78
2022/06/16 02:15:56;;;;;;;4.30;2.75;;;;;;;12.36;72.34;100625.05;1717531;83;21046;-77
2022/06/16 02:18:28;;;;;;;5.73;2.53;;;;;;;12.38;72.28;100624.06;1719030;82;21042;-77
2022/06/16 02:21:17;;;;;;;3.80;2.42;;;;;;;12.38;72.43;100623.22;1719441;82;21026;-78
2022/06/16 02:23:45;;;;;;;5.35;3.05;;;;;;;12.35;72.34;100622.03;1718957;82;21038;-78
2022/06/16 02:26:14;;;;;;;2.85;2.30;;;;;;;12.36;72.62;100618.47;1719146;82;21160;-77
2022/06/16 02:28:48;;;;;;;;;;;;;;;12.34;72.60;100613.77;1721523;82;21026;-77
2022/06/16 02:31:45;;;;;;;3.27;2.47;;;;;;;12.37;72.96;100616.27;1719095;83;20147;-77
2022/06/16 02:34:26;;;;;;;5.12;2.50;;;;;;;12.40;72.78;100620.92;1702211;82;21086;-77
2022/06/16 02:37:04;;;;;;;5.58;2.98;;;;;;;12.37;72.74;100625.46;1716316;82;21579;-77
2022/06/16 02:39:46;;;;;;;5.60;3.47;;;;;;;12.42;72.95;100619.56;1716378;82;21140;-77
2022/06/16 02:42:37;;;;;;;4.35;2.95;;;;;;;12.45;72.84;100623.37;1716642;82;20991;-78
2022/06/16 02:45:48;;;;;;;4.10;3.00;;;;;;;12.56;72.81;100625.09;1715783;82;21963;-77
2022/06/16 02:48:26;;;;;;;5.47;2.77;;;;;;;12.59;72.86;100626.75;1716466;82;21426;-77
2022/06/16 02:51:05;;;;;;;4.62;3.33;;;;;;;12.63;72.65;100622.59;1696053;83;20975;-78
2022/06/16 02:56:56;;;;;;;5.35;3.35;;;;;;;12.79;72.77;100616.70;1709661;82;21059;-78
2022/06/16 02:59:38;;;;;;;5.03;3.23;;;;;;;12.88;72.67;100617.60;1709293;82;21044;-78
2022/06/16 03:02:17;;;;;;;5.30;3.17;;;;;;;13.00;72.59;100618.84;1690835;83;21054;-78
2022/06/16 03:04:49;;;;;;;;;;;;;;;13.12;72.39;100623.12;1719011;82;21497;-77
2022/06/16 03:07:18;;;;;;;4.97;3.20;;;;;;;13.27;72.33;100620.76;1716054;82;21813;-78
2022/06/16 03:09:46;;;;;;;4.77;3.50;;;;;;;13.35;72.01;100619.48;1716022;82;21004;-78
2022/06/16 03:12:15;;;;;;;6.95;3.30;;;;;;;13.48;71.99;100615.84;1716263;82;21003;-78
2022/06/16 03:14:43;;;;;;;5.92;3.60;;;;;;;13.62;71.71;100617.84;1716441;82;20927;-77
2022/06/16 03:17:12;;;;;;;5.30;3.22;;;;;;;13.74;71.43;100619.91;1716199;82;21042;-77
2022/06/16 03:19:40;;;;;;;6.08;3.60;;;;;;;13.85;71.31;100618.08;1716563;83;21124;-77
2022/06/16 03:22:08;;;;;;;8.48;3.58;;;;;;;13.93;70.92;100611.98;1716068;82;20994;-77
2022/06/16 03:24:36;;;;;;;5.72;3.47;;;;;;;14.02;70.70;100616.84;1716431;82;21461;-77
2022/06/16 03:27:05;;;;;;;7.62;3.90;;;;;;;14.11;70.42;100615.55;1716118;82;21492;-78
2022/06/16 03:29:35;;;;;;;7.12;3.42;;;;;;;14.19;70.19;100612.07;1716095;82;21118;-77
2022/06/16 03:32:02;;;;;;;7.35;3.87;;;;;;;14.26;69.98;100608.19;1716123;82;21132;-78
2022/06/16 03:34:30;;;;;;;6.55;3.47;;;;;;;14.35;69.79;100607.35;1716258;82;20988;-78
2022/06/16 03:36:59;;;;;;;7.08;3.42;;;;;;;14.41;69.59;100602.64;1714121;82;21049;-77
2022/06/16 03:39:34;;;;;;;7.95;3.35;;;;;;;14.47;69.35;100602.33;1712979;82;20995;-77
2022/06/16 03:42:04;;;;;;;4.42;3.00;;;;;;;14.54;69.25;100600.73;1713940;82;21301;-77
2022/06/16 03:44:31;;;;;;;5.12;3.42;;;;;;;14.61;69.15;100596.40;1693853;83;21081;-77
2022/06/16 03:47:00;;;;;;;5.65;3.12;;;;;;;14.65;68.84;100589.17;1713825;82;20995;-77
2022/06/16 03:49:29;;;;;;;5.28;3.12;;;;;;;14.66;68.74;100586.91;1713235;82;21484;-77
2022/06/16 03:51:57;;;;;;;5.72;3.35;;;;;;;14.70;68.53;100595.07;1713170;82;21045;-83
2022/06/16 03:54:26;;;;;;;5.50;3.02;;;;;;;14.71;68.44;100587.09;1713348;82;20987;-84
2022/06/16 03:56:55;;;;;;;5.87;3.22;;;;;;;14.74;68.40;100587.38;1697623;82;21124;-82
2022/06/16 03:59:22;;;;;;;5.97;3.20;;;;;;;14.76;68.25;100588.16;1706061;82;21093;-83
2022/06/16 04:01:50;;;;;;;7.62;3.10;;;;;;;14.78;68.14;100582.81;1713479;82;21011;-83
2022/06/16 04:04:18;;;;;;;5.53;3.33;;;;;;;14.81;68.09;100587.92;1712339;82;21042;-84
2022/06/16 04:06:51;;;;;;;6.70;3.00;;;;;;;14.83;68.07;100584.28;1712537;82;21007;-82
2022/06/16 04:09:20;;;;;;;5.28;3.12;;;;;;;14.86;67.89;100587.23;1712028;82;21355;-82
2022/06/16 04:11:48;;;;;;;5.67;2.98;;;;;;;14.86;67.75;100580.16;1712368;82;21044;-82
2022/06/16 04:14:16;;;;;;;9.13;3.17;;;;;;;14.88;67.70;100575.66;1713575;82;20999;-82
2022/06/16 04:16:49;;;;;;;3.85;3.17;;;;;;;14.89;67.70;100570.76;1712413;82;21031;-82
2022/06/16 04:19:21;;;;;;;5.83;3.30;;;;;;;14.90;67.70;100573.77;1712557;82;20979;-83
2022/06/16 04:21:52;;;;;;;6.65;3.60;;;;;;;14.93;67.70;100572.77;1712264;82;21229;-82
2022/06/16 04:24:27;;;;;;;6.92;2.98;;;;;;;14.94;67.53;100567.42;1693510;82;21046;-83
2022/06/16 04:26:57;;;;;;;8.65;4.08;;;;;;;14.96;67.42;100560.72;1714310;82;21050;-82
2022/06/16 04:29:25;;;;;;;5.65;3.20;;;;;;;14.99;67.42;100563.67;1714062;82;21033;-83
2022/06/16 04:31:54;;;;;;;7.80;3.37;;;;;;;15.01;67.46;100565.77;1712507;82;22165;-82
2022/06/16 04:34:23;;;;;;;7.15;3.27;;;;;;;15.03;67.39;100558.63;1713007;82;21924;-83
2022/06/16 04:36:52;;;;;;;5.90;3.30;;;;;;;15.05;67.29;100559.41;1713182;82;21548;-83
2022/06/16 04:39:19;;;;;;;5.37;3.37;;;;;;;15.07;67.21;100560.16;1713579;82;21493;-82
2022/06/16 04:41:49;;;;;;;5.40;3.08;;;;;;;15.09;67.31;100556.50;1713361;82;21034;-82
2022/06/16 04:44:17;;;;;;;6.12;3.47;;;;;;;15.12;67.33;100561.62;1713612;82;21038;-82
2022/06/16 04:46:47;;;;;;;7.47;3.20;;;;;;;15.15;67.32;100555.32;1714244;82;21170;-82
2022/06/16 04:49:15;;;;;;;8.50;3.47;;;;;;;15.18;67.43;100549.88;1710988;82;20992;-82
2022/06/16 04:51:47;;;;;;;5.78;3.35;;;;;;;15.21;67.32;100547.54;1713958;82;21070;-81
2022/06/16 04:54:15;;;;;;;6.03;3.22;;;;;;;15.23;67.29;100553.59;1714033;82;21047;-82
2022/06/16 04:56:47;;;;;;;7.37;3.52;;;;;;;15.25;67.34;100551.27;1709557;82;21046;-82
2022/06/16 04:59:32;;;;;;;6.30;3.25;;;;;;;15.30;67.24;100551.02;1714271;82;21142;-84
2022/06/16 05:02:15;;;;;;;5.85;3.15;;;;;;;15.32;67.21;100540.73;1714079;82;21038;-85
2022/06/16 05:05:03;;;;;;;10.93;3.37;;;;;;;15.39;67.36;100532.03;1712091;82;21051;-84
2022/06/16 05:07:32;;;;;;;6.67;3.00;;;;;;;15.46;67.35;100537.34;1712538;82;21121;-84
2022/06/16 05:10:01;;;;;;;4.62;3.10;;;;;;;15.53;67.27;100529.47;1712378;82;21690;-83
2022/06/16 05:12:33;;;;;;;8.30;3.20;;;;;;;15.59;67.33;100530.44;1713697;82;21809;-83
2022/06/16 05:15:14;;;;;;;6.22;3.33;;;;;;;15.66;67.08;100527.01;1713103;82;21039;-87
2022/06/16 05:17:58;;;;;;;5.95;3.08;;;;;;;15.74;67.13;100521.30;1693718;83;21059;-84
2022/06/16 05:20:44;;;;;;;5.85;3.37;;;;;;;15.82;67.16;100519.95;1695385;83;21541;-81
2022/06/16 05:23:13;;;;;;;8.35;3.58;;;;;;;15.93;67.17;100529.03;1677400;84;21581;-85
2022/06/16 05:25:57;;;;;;;4.33;2.92;;;;;;;16.02;67.18;100529.38;1683895;83;21127;-79
2022/06/16 05:28:30;;;;;;;6.12;3.17;;;;;;;16.12;67.02;100529.68;1693948;83;21155;-83
2022/06/16 05:31:03;;;;;;;5.62;2.95;;;;;;;16.23;67.09;100536.52;1694427;83;21142;-81
2022/06/16 05:33:38;;;;;;;4.65;3.15;;;;;;;16.36;66.94;100539.31;1695384;83;21098;-82
2022/06/16 05:36:23;;;;;;;6.37;3.25;;;;;;;16.48;66.82;100543.02;1696363;83;21071;-81
2022/06/16 05:39:09;;;;;;;6.00;3.15;;;;;;;16.61;66.84;100546.64;1696372;83;21146;-81
2022/06/16 05:41:46;;;;;;;4.47;2.92;;;;;;;16.81;66.90;100549.44;1687905;83;21119;-87
2022/06/16 05:44:27;;;;;;;6.55;2.90;;;;;;;17.00;66.72;100543.88;1695129;83;21073;-81
2022/06/16 05:47:03;;;;;;;6.00;3.12;;;;;;;17.30;66.68;100528.35;1694406;83;21040;-81
2022/06/16 05:49:33;;;;;;;4.83;2.90;;;;;;;17.30;66.68;100528.35;1695921;83;21131;-83
2022/06/16 05:52:04;;;;;;;3.87;2.83;;;;;;;17.49;66.13;100546.59;1702305;82;21960;-85
2022/06/16 05:54:33;;;;;;;5.53;2.70;;;;;;;17.62;66.09;100543.51;1693630;83;21031;-82
2022/06/16 05:57:00;;;;;;;5.53;3.05;;;;;;;17.76;65.64;100543.95;1696441;82;21775;-85
2022/06/16 05:59:29;;;;;;;6.00;3.30;;;;;;;17.86;65.38;100553.05;1707290;82;21043;-81
2022/06/16 06:02:06;;;;;;;5.85;3.35;;;;;;;17.92;65.07;100539.86;1713369;82;21511;-87
2022/06/16 06:04:35;;;;;;;4.50;2.85;;;;;;;18.01;64.69;100551.19;1708155;82;21133;-85
2022/06/16 06:07:05;;;;;;;5.70;2.90;;;;;;;18.04;64.50;100549.66;1712690;82;21035;-84
2022/06/16 06:18:15;;;;;;;5.20;2.87;;;;;;;18.13;64.21;100544.25;1712278;82;22272;-81
2022/06/16 06:20:42;;;;;;;4.97;2.50;;;;;;;18.15;64.02;100551.16;1712457;82;21014;-79
2022/06/16 06:23:10;;;;;;;3.42;2.90;;;;;;;18.18;63.96;100549.63;1713219;82;21044;-81
2022/06/16 06:25:37;;;;;;;4.85;3.08;;;;;;;18.22;63.90;100547.60;1713565;82;21030;-81
2022/06/16 06:28:05;;;;;;;5.83;3.10;;;;;;;18.27;63.70;100559.61;1712535;82;21655;-82
2022/06/16 06:30:34;;;;;;;5.12;2.67;;;;;;;18.33;63.70;100554.84;1710746;82;21137;-85
2022/06/16 06:33:04;;;;;;;4.03;2.95;;;;;;;18.40;63.62;100546.83;1710678;82;21004;-91
2022/06/16 06:35:31;;;;;;;7.28;3.20;;;;;;;18.49;63.40;100552.87;1648723;86;21072;-83
2022/06/16 06:38:00;;;;;;;7.50;3.35;;;;;;;18.56;63.26;100553.29;1722170;82;21034;-83
2022/06/16 06:40:36;;;;;;;6.33;3.05;;;;;;;18.66;63.26;100559.69;1722153;82;21666;-83
2022/06/16 06:43:05;;;;;;;5.72;3.20;;;;;;;18.78;63.09;100556.69;1722206;81;21168;-83
2022/06/16 06:45:35;;;;;;;5.40;2.90;;;;;;;18.89;62.99;100559.45;1722307;82;21460;-82
2022/06/16 06:48:04;;;;;;;5.90;2.65;;;;;;;18.99;62.79;100561.85;1693886;83;21983;-82
2022/06/16 06:50:36;;;;;;;5.72;2.98;;;;;;;19.11;62.69;100553.49;1722198;82;21137;-86
2022/06/16 06:53:04;;;;;;;4.90;3.05;;;;;;;19.22;62.62;100556.24;1687601;83;21103;-83
2022/06/16 06:55:35;;;;;;;5.30;3.08;;;;;;;19.32;62.45;100559.95;1687392;84;21133;-83
2022/06/16 06:58:04;;;;;;;4.80;2.87;;;;;;;19.41;62.48;100557.60;1674514;83;21019;-83
2022/06/16 07:00:32;;;;;;;3.20;2.50;;;;;;;19.49;62.30;100564.06;1661930;84;20970;-84
2022/06/16 07:02:59;;;;;;;6.47;3.17;;;;;;;19.53;62.01;100562.87;1688921;84;21039;-83
2022/06/16 07:05:27;;;;;;;3.58;2.72;;;;;;;19.55;61.68;100566.77;1688887;84;21548;-85
2022/06/16 07:07:58;;;;;;;4.58;3.12;;;;;;;19.57;61.75;100567.52;1686055;84;21521;-83
2022/06/16 07:10:25;;;;;;;5.05;2.75;;;;;;;19.63;61.90;100569.72;1692588;83;21051;-88
2022/06/16 07:12:59;;;;;;;5.35;3.12;;;;;;;19.68;61.74;100563.63;1692609;84;21070;-87
2022/06/16 07:15:24;;;;;;;6.40;3.50;;;;;;;19.75;61.57;100555.55;1722389;82;20995;-88
2022/06/16 07:17:51;;;;;;;5.45;2.67;;;;;;;19.85;61.76;100550.91;1722819;82;21011;-84
2022/06/16 07:20:58;;;;;;;;;;;;;;;;;;;;;
2022/06/16 07:23:41;;;;;;;4.25;2.77;;;;;;;20.00;61.71;100541.78;1693306;82;21053;-87
2022/06/16 07:26:09;;;;;;;3.72;2.58;;;;;;;20.10;61.78;100542.80;1722831;82;21073;-84
2022/06/16 07:28:37;;;;;;;5.45;2.80;;;;;;;20.17;61.73;100541.85;1723570;81;21069;-86
2022/06/16 07:31:04;;;;;;;4.40;2.90;;;;;;;20.24;61.73;100541.28;1723912;82;20986;-85
2022/06/16 07:33:32;;;;;;;5.60;2.75;;;;;;;20.33;61.50;100543.73;1723796;82;21199;-82
2022/06/16 07:35:59;;;;;;;8.83;3.08;;;;;;;20.38;61.54;100547.38;1722541;82;21049;-83
2022/06/16 07:38:27;;;;;;;5.70;2.60;;;;;;;20.44;61.26;100551.75;1713720;82;21611;-81
2022/06/16 07:41:30;;;;;;;7.05;3.05;;;;;;;20.53;61.24;100550.69;1713946;82;21042;-82
2022/06/16 07:43:24;;;;;;;6.42;3.25;;;;;;;20.61;61.28;100552.31;1710593;82;21008;-82
2022/06/16 07:45:51;;;;;;;3.97;2.60;;;;;;;20.70;61.54;100551.14;1713823;82;21132;-84
2022/06/16 07:48:19;;;;;;;4.90;2.55;;;;;;;20.86;61.57;100555.26;1713627;82;21038;-84
2022/06/16 07:50:46;;;;;;;5.20;2.50;;;;;;;21.02;61.19;100550.44;1713699;82;21014;-81
2022/06/16 07:53:13;;;;;;;4.72;2.70;;;;;;;21.13;61.00;100535.77;1713778;82;21015;-79
2022/06/16 07:55:40;;;;;;;4.33;2.77;;;;;;;21.26;60.72;100542.81;1713787;82;21042;-80
2022/06/16 07:58:07;;;;;;;4.75;2.60;;;;;;;21.41;60.90;100538.94;1689158;82;21227;-79
2022/06/16 08:00:35;;;;;;;3.95;2.85;;;;;;;21.53;61.14;100536.64;1713708;82;20974;-79
2022/06/16 08:03:03;;;;;;;4.78;2.47;;;;;;;21.71;60.76;100533.44;1713617;82;21051;-81
2022/06/16 08:05:32;;;;;;;4.70;2.77;;;;;;;21.89;59.99;100539.08;1713521;82;20976;-80
2022/06/16 08:07:59;;;;;;;7.25;2.77;;;;;;;22.02;59.93;100540.60;1713827;82;26710;-82
2022/06/16 08:10:34;;;;;;;4.30;2.10;;;;;;;22.22;59.84;100532.30;1711784;83;21133;-79
2022/06/16 08:12:59;;;;;;;2.80;1.77;;;;;;;22.36;58.73;100532.47;1709767;82;21094;-80
2022/06/16 08:15:26;;;;;;;4.20;2.25;;;;;;;22.50;57.65;100531.30;1712359;82;21807;-80
2022/06/16 08:17:55;;;;;;;5.72;2.33;;;;;;;22.63;57.81;100533.29;1648770;86;21073;-80
2022/06/16 08:20:23;;;;;;;5.03;2.20;;;;;;;22.76;57.51;100530.42;1678505;83;21055;-82
2022/06/16 08:22:50;;;;;;;4.58;2.15;;;;;;;22.92;57.02;100529.95;1682535;83;21095;-80
2022/06/16 08:25:19;;;;;;;3.63;2.20;;;;;;;23.06;56.57;100532.30;1681512;83;21067;-78
2022/06/16 08:27:49;;;;;;;8.83;2.52;;;;;;;23.19;55.85;100531.20;1658184;85;21052;-78
2022/06/16 08:30:18;;;;;;;6.22;2.67;;;;;;;23.32;56.05;100528.65;1658350;85;21550;-78
2022/06/16 08:32:46;;;;;;;4.90;2.40;;;;;;;23.48;55.75;100529.97;1658799;85;21105;-78
2022/06/16 08:35:14;;;;;;;4.20;2.12;;;;;;;23.63;55.85;100523.23;1658436;85;21102;-78
2022/06/16 08:37:41;;;;;;;3.58;2.27;;;;;;;23.81;55.62;100523.45;1653460;85;21064;-78
2022/06/16 08:40:12;;;;;;;2.72;2.10;;;;;;;23.98;55.27;100529.94;1651180;85;21144;-78
2022/06/16 08:42:56;;;;;;;7.10;2.00;;;;;;;24.10;54.64;100528.80;1675137;85;21589;-79
2022/06/16 08:45:40;;;;;;;2.80;2.12;;;;;;;24.23;54.11;100528.02;1691927;84;21059;-78
2022/06/16 08:48:38;;;;;;;4.70;2.20;;;;;;;24.40;53.33;100526.95;1644628;86;21084;-78
2022/06/16 08:51:29;;;;;;;2.75;1.90;;;;;;;24.52;53.38;100524.98;1685974;84;20992;-78
2022/06/16 08:54:08;;;;;;;2.70;1.85;;;;;;;24.70;53.08;100524.61;1685428;84;21039;-78
2022/06/16 08:57:18;;;;;;;2.87;2.08;;;;;;;24.89;52.76;100525.05;1675756;83;21056;-78
2022/06/16 08:59:51;;;;;;;;;;;;;;;25.05;52.32;100523.92;1576735;89;21636;-78
2022/06/16 09:02:29;;;;;;;6.72;2.45;;;;;;;25.23;50.90;100520.48;1579896;90;20979;-78
2022/06/16 09:05:02;;;;;;;2.80;1.77;;;;;;;25.35;51.12;100521.46;1599850;87;21046;-79
2022/06/16 09:07:43;;;;;;;5.45;2.05;;;;;;;25.49;50.82;100524.64;1709332;82;21019;-79
2022/06/16 09:10:46;;;;;;;5.12;1.77;;;;;;;25.60;50.38;100532.48;1710426;82;21003;-78
2022/06/16 09:13:48;;;;;;;2.42;1.70;;;;;;;25.70;50.00;100535.11;1681824;82;21159;-78
2022/06/16 09:16:52;;;;;;;3.98;1.90;;;;;;;25.81;49.51;100533.55;1711213;82;21934;-78
2022/06/16 09:19:52;;;;;;;3.05;1.70;;;;;;;25.90;49.17;100538.03;1711026;82;21054;-78
2022/06/16 09:22:23;;;;;;;3.42;1.87;;;;;;;25.99;48.66;100542.98;1705380;82;21062;-78
2022/06/16 09:25:30;;;;;;;3.37;1.70;;;;;;;26.06;48.13;100538.70;1709582;82;20987;-78
2022/06/16 09:28:35;;;;;;;3.87;2.00;;;;;;;26.12;47.67;100539.92;1711582;82;21202;-78
2022/06/16 09:31:04;;;;;;;2.85;1.95;;;;;;;26.16;47.59;100533.22;1711131;82;21135;-79
2022/06/16 09:33:37;;;;;;;3.30;1.87;;;;;;;26.25;47.16;100539.88;1711550;83;20999;-79
2022/06/16 09:36:14;;;;;;;3.33;1.98;;;;;;;26.29;46.66;100545.77;1711198;82;21055;-79
2022/06/16 09:38:59;;;;;;;3.37;2.00;;;;;;;26.30;46.44;100534.05;1713538;83;21521;-79
2022/06/16 09:44:32;;;;;;;5.30;1.80;;;;;;;26.49;46.01;100534.33;1714056;83;22132;-79
2022/06/16 09:47:04;;;;;;;4.62;1.90;;;;;;;26.61;45.31;100530.44;1713629;82;21047;-79
2022/06/16 09:49:43;;;;;;;4.62;1.72;;;;;;;26.69;44.76;100523.77;1713756;82;20987;-78
2022/06/16 09:52:18;;;;;;;2.47;1.90;;;;;;;26.80;44.57;100531.20;1713029;82;21053;-78
2022/06/16 09:54:51;;;;;;;2.12;1.65;;;;;;;26.93;44.42;100532.45;1712671;82;21474;-79
2022/06/16 09:57:29;;;;;;;2.98;2.08;;;;;;;27.05;43.66;100528.17;1708172;82;21181;-79
2022/06/16 10:00:11;;;;;;;3.77;1.87;;;;;;;27.19;43.48;100538.84;1710637;82;21030;-78
2022/06/16 10:02:56;;;;;;;1.77;1.35;;;;;;;27.34;43.00;100531.84;1711037;83;21603;-78
2022/06/16 10:05:37;;;;;;;2.15;1.40;;;;;;;27.44;41.58;100525.84;1712463;82;21051;-79
2022/06/16 10:08:21;;;;;;;2.85;1.50;;;;;;;27.52;41.03;100517.79;1702457;83;21558;-79
2022/06/16 10:11:03;;;;;;;3.25;1.62;;;;;;;27.58;40.78;100517.63;1700933;84;21128;-79
2022/06/16 10:13:45;;;;;;;2.27;1.60;;;;;;;27.68;40.26;100519.66;1685929;83;21056;-79
2022/06/16 10:16:17;;;;;;;2.08;1.45;;;;;;;27.72;40.07;100507.56;1671196;84;21111;-79
2022/06/16 10:18:47;;;;;;;2.10;1.30;;;;;;;27.79;39.99;100510.42;1689042;83;21078;-79
2022/06/16 10:21:16;;;;;;;6.17;2.62;;;;;;;27.93;39.58;100511.14;1677780;83;21596;-79
2022/06/16 10:23:57;;;;;;;3.75;1.65;;;;;;;28.11;39.38;100514.20;1697739;83;21113;-78
2022/06/16 10:26:25;;;;;;;2.67;1.20;;;;;;;28.31;38.84;100510.66;1700918;83;21156;-79
2022/06/16 10:29:10;;;;;;;2.95;1.50;;;;;;;28.50;38.33;100512.19;1702477;83;21041;-78
2022/06/16 10:31:45;;;;;;;2.62;1.27;;;;;;;28.65;37.83;100510.47;1694473;83;21057;-78
2022/06/16 10:34:29;;;;;;;2.05;1.30;;;;;;;28.83;37.56;100515.15;1696617;84;21015;-78
2022/06/16 10:37:01;;;;;;;2.62;1.40;;;;;;;29.08;37.28;100516.45;1700416;83;21129;-81
2022/06/16 10:39:55;;;;;;;3.47;1.32;;;;;;;29.35;37.04;100516.00;1689049;82;21569;-87
2022/06/16 10:42:33;;;;;;;2.77;1.47;;;;;;;29.64;36.82;100514.52;1706566;83;21661;-79
2022/06/16 10:45:06;;;;;;;5.97;1.60;;;;;;;30.07;36.08;100512.69;1709816;82;21488;-91
2022/06/16 10:47:54;;;;;;;2.92;1.45;;;;;;;30.51;35.81;100520.94;1713832;82;21054;-86
2022/06/16 10:50:38;;;;;;;1.82;1.17;;;;;;;30.65;35.02;100512.03;1714370;82;21098;-81
2022/06/16 10:53:33;;;;;;;5.65;1.55;;;;;;;30.55;34.58;100517.38;1714503;82;21035;-79
2022/06/16 10:56:18;;;;;;;5.28;1.20;;;;;;;30.35;34.29;100521.13;1711847;82;21019;-86
2022/06/16 10:59:06;;;;;;;3.15;1.25;;;;;;;30.37;34.34;100528.00;1678193;83;21521;-82
2022/06/16 11:01:41;;;;;;;2.47;1.22;;;;;;;30.52;34.42;100528.56;1706808;82;21074;-79
2022/06/16 11:04:19;;;;;;;3.35;1.55;;;;;;;30.74;34.32;100522.25;1703404;82;21058;-80
2022/06/16 11:06:55;;;;;;;2.98;1.35;;;;;;;30.83;34.17;100523.86;1697161;83;21015;-80
2022/06/16 11:09:27;;;;;;;2.40;1.37;;;;;;;30.99;33.92;100521.48;1716482;82;21026;-80
2022/06/16 11:12:02;;;;;;;5.03;1.77;;;;;;;31.00;33.65;100523.67;1716271;82;21584;-80
2022/06/16 11:14:40;;;;;;;3.33;1.50;;;;;;;30.89;33.15;100524.98;1716362;82;21089;-80
2022/06/16 11:17:18;;;;;;;3.08;1.30;;;;;;;31.05;32.82;100518.55;1716537;82;21939;-78
2022/06/16 11:19:54;;;;;;;7.62;1.30;;;;;;;31.26;33.07;100519.11;1715591;82;22105;-78
2022/06/16 11:22:40;;;;;;;3.90;1.60;;;;;;;31.58;33.09;100527.88;1720516;82;21544;-78
2022/06/16 11:25:26;;;;;;;3.20;1.57;;;;;;;31.91;32.78;100521.45;1720889;82;21042;-79
2022/06/16 11:28:17;;;;;;;2.00;1.40;;;;;;;32.27;32.46;100515.14;1716404;82;21050;-77
2022/06/16 11:30:56;;;;;;;6.55;1.72;;;;;;;32.61;31.92;100521.16;1716124;82;39946;-77
2022/06/16 11:34:14;;;;;;;6.20;1.52;;;;;;;32.75;31.53;100516.13;1716238;82;21034;-78
2022/06/16 11:36:04;;;;;;;4.05;1.70;;;;;;;32.74;31.05;100509.03;1714111;82;21532;-80
2022/06/16 11:38:46;;;;;;;3.33;1.33;;;;;;;32.59;31.12;100511.01;1716309;82;21026;-76
2022/06/16 11:41:15;;;;;;;2.45;1.25;;;;;;;32.59;31.12;100511.01;1698173;82;21968;-79
2022/06/16 11:44:08;;;;;;;2.92;1.50;;;;;;;32.45;30.79;100504.62;1716092;82;21975;-79
2022/06/16 11:46:46;;;;;;;4.33;1.40;;;;;;;32.39;30.83;100504.05;1678172;83;21054;-77
2022/06/16 11:49:25;;;;;;;3.72;1.37;;;;;;;32.16;30.51;100507.02;1707798;83;21028;-78
2022/06/16 11:52:08;;;;;;;;;;;;;;;31.82;30.73;100504.48;1711002;83;21499;-88
2022/06/16 11:54:47;;;;;;;2.58;1.72;;;;;;;31.47;30.44;100498.89;1708041;83;20582;-83
2022/06/16 11:57:19;;;;;;;2.87;1.50;;;;;;;31.41;31.27;100502.37;1709038;82;21912;-82
2022/06/16 12:00:03;;;;;;;2.90;1.52;;;;;;;31.28;31.16;100496.75;1707706;83;21140;-78
2022/06/16 12:03:26;;;;;;;2.05;1.40;;;;;;;31.19;31.06;100493.31;1707537;83;21013;-76
2022/06/16 12:06:41;;;;;;;6.45;1.57;;;;;;;31.41;30.97;100494.23;1708585;83;21024;-78
2022/06/16 12:09:41;;;;;;;3.87;1.67;;;;;;;31.55;30.96;100487.10;1708819;83;21593;-77
2022/06/16 12:12:27;;;;;;;2.95;1.57;;;;;;;31.14;30.67;100485.44;1708163;83;21148;-79
2022/06/16 12:15:09;;;;;;;4.50;1.60;;;;;;;30.66;30.65;100488.52;1708595;83;21091;-78
2022/06/16 12:17:47;;;;;;;6.20;1.90;;;;;;;30.25;30.77;100483.51;1670759;83;21159;-85
2022/06/16 12:20:20;;;;;;;2.62;1.60;;;;;;;29.98;31.03;100480.83;1696606;83;21191;-82
2022/06/16 12:22:58;;;;;;;2.65;1.72;;;;;;;29.76;31.27;100477.98;1703420;82;21063;-80